sensor_id;sensor_type;location;lat;lon;timestamp;pressure;altitude;pressure_sealevel;temperature;humidity
75401;BME280;63974;47.538;18.972;2023-11-18T00:00:15;100286.56;;;4.44;73.50
75401;BME280;63974;47.538;18.972;2023-11-18T00:03:19;100285.16;;;4.40;73.64
75401;BME280;63974;47.538;18.972;2023-11-18T00:06:22;100301.69;;;4.38;73.93
75401;BME280;63974;47.538;18.972;2023-11-18T00:09:25;100306.56;;;4.41;73.41
75401;BME280;63974;47.538;18.972;2023-11-18T00:12:28;100306.00;;;4.37;73.80
75401;BME280;63974;47.538;18.972;2023-11-18T00:15:30;100304.94;;;4.40;73.21
75401;BME280;63974;47.538;18.972;2023-11-18T00:18:33;100304.06;;;4.30;73.88
75401;BME280;63974;47.538;18.972;2023-11-18T00:21:36;100300.44;;;4.32;73.60
75401;BME280;63974;47.538;18.972;2023-11-18T00:24:39;100307.44;;;4.30;73.52
75401;BME280;63974;47.538;18.972;2023-11-18T00:27:42;100309.59;;;4.26;73.78
75401;BME280;63974;47.538;18.972;2023-11-18T00:30:45;100320.81;;;4.25;73.73
75401;BME280;63974;47.538;18.972;2023-11-18T00:33:48;100328.34;;;4.17;73.94
75401;BME280;63974;47.538;18.972;2023-11-18T00:36:51;100309.66;;;4.15;73.74
75401;BME280;63974;47.538;18.972;2023-11-18T00:39:54;100329.53;;;4.13;73.67
75401;BME280;63974;47.538;18.972;2023-11-18T00:42:57;100322.78;;;4.12;74.01
75401;BME280;63974;47.538;18.972;2023-11-18T00:45:59;100334.78;;;4.11;73.72
75401;BME280;63974;47.538;18.972;2023-11-18T00:49:02;100334.94;;;4.10;73.95
75401;BME280;63974;47.538;18.972;2023-11-18T00:52:05;100329.13;;;4.08;73.65
75401;BME280;63974;47.538;18.972;2023-11-18T00:55:08;100330.56;;;4.01;73.58
75401;BME280;63974;47.538;18.972;2023-11-18T00:58:13;100341.63;;;4.01;74.45
75401;BME280;63974;47.538;18.972;2023-11-18T01:01:16;100345.53;;;3.96;74.63
75401;BME280;63974;47.538;18.972;2023-11-18T01:04:20;100346.03;;;3.90;74.75
75401;BME280;63974;47.538;18.972;2023-11-18T01:07:23;100347.91;;;3.88;74.57
75401;BME280;63974;47.538;18.972;2023-11-18T01:10:25;100356.50;;;3.98;73.54
75401;BME280;63974;47.538;18.972;2023-11-18T01:13:30;100352.41;;;3.95;74.04
75401;BME280;63974;47.538;18.972;2023-11-18T01:16:34;100365.16;;;3.97;73.88
75401;BME280;63974;47.538;18.972;2023-11-18T01:19:37;100357.28;;;3.98;73.65
75401;BME280;63974;47.538;18.972;2023-11-18T01:22:40;100358.91;;;3.99;73.58
75401;BME280;63974;47.538;18.972;2023-11-18T01:25:44;100360.53;;;4.00;73.36
75401;BME280;63974;47.538;18.972;2023-11-18T01:28:47;100384.97;;;3.95;74.06
75401;BME280;63974;47.538;18.972;2023-11-18T01:31:50;100350.03;;;3.83;74.13
75401;BME280;63974;47.538;18.972;2023-11-18T01:34:54;100364.69;;;3.92;74.49
75401;BME280;63974;47.538;18.972;2023-11-18T01:37:57;100377.09;;;3.87;74.97
75401;BME280;63974;47.538;18.972;2023-11-18T01:41:00;100374.53;;;3.87;75.26
75401;BME280;63974;47.538;18.972;2023-11-18T01:44:03;100368.00;;;3.83;75.25
75401;BME280;63974;47.538;18.972;2023-11-18T01:47:07;100377.59;;;3.81;75.63
75401;BME280;63974;47.538;18.972;2023-11-18T01:50:13;100371.50;;;3.82;75.28
75401;BME280;63974;47.538;18.972;2023-11-18T01:53:17;100376.53;;;3.83;75.20
75401;BME280;63974;47.538;18.972;2023-11-18T01:56:20;100375.16;;;3.79;75.52
75401;BME280;63974;47.538;18.972;2023-11-18T01:59:23;100374.31;;;3.79;75.38
75401;BME280;63974;47.538;18.972;2023-11-18T02:02:28;100364.19;;;3.77;75.20
75401;BME280;63974;47.538;18.972;2023-11-18T02:05:31;100372.44;;;3.81;75.39
75401;BME280;63974;47.538;18.972;2023-11-18T02:08:35;100370.81;;;3.80;75.39
75401;BME280;63974;47.538;18.972;2023-11-18T02:11:42;100380.41;;;3.78;75.69
75401;BME280;63974;47.538;18.972;2023-11-18T02:14:48;100379.31;;;3.91;74.41
75401;BME280;63974;47.538;18.972;2023-11-18T02:17:53;100366.56;;;3.90;74.59
75401;BME280;63974;47.538;18.972;2023-11-18T02:20:57;100369.56;;;3.95;74.26
75401;BME280;63974;47.538;18.972;2023-11-18T02:24:00;100379.63;;;3.98;73.85
75401;BME280;63974;47.538;18.972;2023-11-18T02:27:05;100348.41;;;4.02;73.83
75401;BME280;63974;47.538;18.972;2023-11-18T02:30:14;100366.25;;;4.04;73.94
75401;BME280;63974;47.538;18.972;2023-11-18T02:33:27;100371.53;;;4.02;73.87
75401;BME280;63974;47.538;18.972;2023-11-18T02:36:36;100367.41;;;4.11;73.29
75401;BME280;63974;47.538;18.972;2023-11-18T02:39:45;100378.03;;;4.06;73.75
75401;BME280;63974;47.538;18.972;2023-11-18T02:42:53;100371.53;;;4.02;73.96
75401;BME280;63974;47.538;18.972;2023-11-18T02:45:57;100368.97;;;4.02;73.86
75401;BME280;63974;47.538;18.972;2023-11-18T02:49:01;100381.50;;;3.96;74.13
75401;BME280;63974;47.538;18.972;2023-11-18T02:52:04;100375.03;;;4.01;74.06
75401;BME280;63974;47.538;18.972;2023-11-18T02:55:08;100381.81;;;4.02;74.04
75401;BME280;63974;47.538;18.972;2023-11-18T02:58:11;100381.50;;;3.96;74.38
75401;BME280;63974;47.538;18.972;2023-11-18T03:01:14;100378.09;;;3.95;74.38
75401;BME280;63974;47.538;18.972;2023-11-18T03:04:16;100398.91;;;3.92;74.93
75401;BME280;63974;47.538;18.972;2023-11-18T03:07:21;100391.19;;;3.92;74.74
75401;BME280;63974;47.538;18.972;2023-11-18T03:10:24;100405.09;;;3.90;74.67
75401;BME280;63974;47.538;18.972;2023-11-18T03:13:26;100400.66;;;3.92;74.93
75401;BME280;63974;47.538;18.972;2023-11-18T03:16:30;100420.63;;;3.88;75.15
75401;BME280;63974;47.538;18.972;2023-11-18T03:19:33;100424.13;;;3.87;75.18
75401;BME280;63974;47.538;18.972;2023-11-18T03:22:39;100424.00;;;3.89;75.30
75401;BME280;63974;47.538;18.972;2023-11-18T03:25:42;100424.38;;;3.84;75.57
75401;BME280;63974;47.538;18.972;2023-11-18T03:28:46;100440.38;;;3.88;75.41
75401;BME280;63974;47.538;18.972;2023-11-18T03:31:50;100444.56;;;3.89;75.58
75401;BME280;63974;47.538;18.972;2023-11-18T03:34:52;100441.41;;;3.85;75.40
75401;BME280;63974;47.538;18.972;2023-11-18T03:37:56;100444.56;;;3.89;75.26
75401;BME280;63974;47.538;18.972;2023-11-18T03:40:59;100402.53;;;3.58;76.05
75401;BME280;63974;47.538;18.972;2023-11-18T03:44:02;100446.22;;;3.79;76.21
75401;BME280;63974;47.538;18.972;2023-11-18T03:47:05;100458.09;;;3.91;75.43
75401;BME280;63974;47.538;18.972;2023-11-18T03:50:09;100457.88;;;3.83;76.17
75401;BME280;63974;47.538;18.972;2023-11-18T03:53:13;100465.41;;;3.75;76.84
75401;BME280;63974;47.538;18.972;2023-11-18T03:56:19;100464.22;;;3.68;77.46
75401;BME280;63974;47.538;18.972;2023-11-18T03:59:22;100451.41;;;3.68;77.38
75401;BME280;63974;47.538;18.972;2023-11-18T04:02:25;100467.75;;;3.67;77.35
75401;BME280;63974;47.538;18.972;2023-11-18T04:05:28;100462.34;;;3.70;77.01
75401;BME280;63974;47.538;18.972;2023-11-18T04:08:31;100475.53;;;3.76;76.45
75401;BME280;63974;47.538;18.972;2023-11-18T04:11:36;100474.63;;;3.77;76.56
75401;BME280;63974;47.538;18.972;2023-11-18T04:14:38;100484.63;;;3.80;76.47
75401;BME280;63974;47.538;18.972;2023-11-18T04:17:41;100487.56;;;3.76;76.58
75401;BME280;63974;47.538;18.972;2023-11-18T04:20:46;100486.19;;;3.72;77.02
75401;BME280;63974;47.538;18.972;2023-11-18T04:23:52;100491.19;;;3.73;77.11
75401;BME280;63974;47.538;18.972;2023-11-18T04:26:55;100496.31;;;3.73;77.09
75401;BME280;63974;47.538;18.972;2023-11-18T04:29:58;100519.50;;;3.83;76.47
75401;BME280;63974;47.538;18.972;2023-11-18T04:33:00;100505.50;;;3.87;76.29
75401;BME280;63974;47.538;18.972;2023-11-18T04:36:03;100509.63;;;3.78;76.76
75401;BME280;63974;47.538;18.972;2023-11-18T04:39:08;100505.78;;;3.73;77.24
75401;BME280;63974;47.538;18.972;2023-11-18T04:42:14;100517.44;;;3.77;76.90
75401;BME280;63974;47.538;18.972;2023-11-18T04:45:18;100517.44;;;3.77;76.91
75401;BME280;63974;47.538;18.972;2023-11-18T04:48:21;100509.16;;;3.73;77.13
75401;BME280;63974;47.538;18.972;2023-11-18T04:51:24;100503.00;;;3.65;77.56
75401;BME280;63974;47.538;18.972;2023-11-18T04:54:28;100506.97;;;3.58;78.04
75401;BME280;63974;47.538;18.972;2023-11-18T04:57:30;100509.75;;;3.66;77.38
75401;BME280;63974;47.538;18.972;2023-11-18T05:00:33;100515.84;;;3.65;77.69
75401;BME280;63974;47.538;18.972;2023-11-18T05:03:36;100530.91;;;3.58;78.09
75401;BME280;63974;47.538;18.972;2023-11-18T05:06:39;100544.41;;;3.60;77.89
75401;BME280;63974;47.538;18.972;2023-11-18T05:09:41;100528.41;;;3.68;77.19
75401;BME280;63974;47.538;18.972;2023-11-18T05:12:44;100528.31;;;3.69;77.17
75401;BME280;63974;47.538;18.972;2023-11-18T05:15:47;100533.44;;;3.69;77.22
75401;BME280;63974;47.538;18.972;2023-11-18T05:18:50;100536.94;;;3.79;76.78
75401;BME280;63974;47.538;18.972;2023-11-18T05:21:52;100538.44;;;3.71;77.48
75401;BME280;63974;47.538;18.972;2023-11-18T05:24:57;100537.41;;;3.62;77.38
75401;BME280;63974;47.538;18.972;2023-11-18T05:28:00;100550.25;;;3.73;76.91
75401;BME280;63974;47.538;18.972;2023-11-18T05:31:02;100540.31;;;3.69;77.25
75401;BME280;63974;47.538;18.972;2023-11-18T05:34:06;100544.31;;;3.62;78.16
75401;BME280;63974;47.538;18.972;2023-11-18T05:37:09;100549.47;;;3.51;78.90
75401;BME280;63974;47.538;18.972;2023-11-18T05:40:12;100559.25;;;3.46;79.21
75401;BME280;63974;47.538;18.972;2023-11-18T05:43:18;100553.41;;;3.44;79.01
75401;BME280;63974;47.538;18.972;2023-11-18T05:46:24;100578.72;;;3.48;78.65
75401;BME280;63974;47.538;18.972;2023-11-18T05:49:28;100578.63;;;3.50;78.65
75401;BME280;63974;47.538;18.972;2023-11-18T05:52:31;100564.16;;;3.38;78.54
75401;BME280;63974;47.538;18.972;2023-11-18T05:55:33;100585.63;;;3.48;78.68
75401;BME280;63974;47.538;18.972;2023-11-18T05:58:36;100580.94;;;3.42;79.08
75401;BME280;63974;47.538;18.972;2023-11-18T06:01:40;100578.88;;;3.36;79.80
75401;BME280;63974;47.538;18.972;2023-11-18T06:04:44;100566.81;;;3.25;79.94
75401;BME280;63974;47.538;18.972;2023-11-18T06:07:47;100566.72;;;3.27;80.03
75401;BME280;63974;47.538;18.972;2023-11-18T06:10:50;100589.69;;;3.39;79.56
75401;BME280;63974;47.538;18.972;2023-11-18T06:13:59;100580.84;;;3.43;79.47
75401;BME280;63974;47.538;18.972;2023-11-18T06:17:01;100593.53;;;3.45;79.32
75401;BME280;63974;47.538;18.972;2023-11-18T06:20:04;100581.19;;;3.50;79.25
75401;BME280;63974;47.538;18.972;2023-11-18T06:23:09;100586.19;;;3.51;79.69
75401;BME280;63974;47.538;18.972;2023-11-18T06:26:13;100594.03;;;3.50;79.70
75401;BME280;63974;47.538;18.972;2023-11-18T06:29:17;100593.69;;;3.65;78.58
75401;BME280;63974;47.538;18.972;2023-11-18T06:32:20;100603.22;;;3.63;78.96
75401;BME280;63974;47.538;18.972;2023-11-18T06:35:22;100611.53;;;3.67;78.79
75401;BME280;63974;47.538;18.972;2023-11-18T06:38:27;100613.97;;;3.68;79.09
75401;BME280;63974;47.538;18.972;2023-11-18T06:41:32;100615.72;;;3.68;78.60
75401;BME280;63974;47.538;18.972;2023-11-18T06:44:42;100622.13;;;3.73;78.36
75401;BME280;63974;47.538;18.972;2023-11-18T06:47:45;100626.13;;;3.77;78.36
75401;BME280;63974;47.538;18.972;2023-11-18T06:50:48;100621.44;;;3.82;78.59
75401;BME280;63974;47.538;18.972;2023-11-18T06:53:51;100630.53;;;3.86;78.41
75401;BME280;63974;47.538;18.972;2023-11-18T06:56:54;100646.44;;;3.91;78.57
75401;BME280;63974;47.538;18.972;2023-11-18T06:59:57;100648.25;;;4.00;77.50
75401;BME280;63974;47.538;18.972;2023-11-18T07:03:00;100646.16;;;4.05;77.29
75401;BME280;63974;47.538;18.972;2023-11-18T07:06:04;100647.44;;;4.11;76.65
75401;BME280;63974;47.538;18.972;2023-11-18T07:09:09;100657.72;;;4.11;76.72
75401;BME280;63974;47.538;18.972;2023-11-18T07:12:16;100637.88;;;4.13;76.73
75401;BME280;63974;47.538;18.972;2023-11-18T07:15:19;100642.84;;;4.25;75.75
75401;BME280;63974;47.538;18.972;2023-11-18T07:18:22;100653.72;;;4.28;76.01
75401;BME280;63974;47.538;18.972;2023-11-18T07:21:25;100648.72;;;4.27;75.53
75401;BME280;63974;47.538;18.972;2023-11-18T07:24:27;100647.84;;;4.37;75.63
75401;BME280;63974;47.538;18.972;2023-11-18T07:27:35;100652.28;;;4.46;74.43
75401;BME280;63974;47.538;18.972;2023-11-18T07:30:38;100643.47;;;4.49;73.71
75401;BME280;63974;47.538;18.972;2023-11-18T07:33:41;100664.63;;;4.52;73.04
75401;BME280;63974;47.538;18.972;2023-11-18T07:36:47;100652.47;;;4.54;74.59
75401;BME280;63974;47.538;18.972;2023-11-18T07:39:50;100667.28;;;4.62;73.83
75401;BME280;63974;47.538;18.972;2023-11-18T07:42:54;100679.22;;;4.63;73.32
75401;BME280;63974;47.538;18.972;2023-11-18T07:45:58;100662.59;;;4.67;73.27
75401;BME280;63974;47.538;18.972;2023-11-18T07:49:00;100669.72;;;4.74;73.32
75401;BME280;63974;47.538;18.972;2023-11-18T07:52:04;100665.25;;;4.76;73.69
75401;BME280;63974;47.538;18.972;2023-11-18T07:55:08;100672.34;;;4.84;72.44
75401;BME280;63974;47.538;18.972;2023-11-18T07:58:13;100657.13;;;4.92;72.01
75401;BME280;63974;47.538;18.972;2023-11-18T08:01:17;100678.84;;;4.99;72.01
75401;BME280;63974;47.538;18.972;2023-11-18T08:04:19;100673.78;;;5.08;72.25
75401;BME280;63974;47.538;18.972;2023-11-18T08:07:23;100650.47;;;5.10;71.62
75401;BME280;63974;47.538;18.972;2023-11-18T08:10:26;100648.78;;;5.20;69.76
75401;BME280;63974;47.538;18.972;2023-11-18T08:13:31;100659.69;;;5.33;68.99
75401;BME280;63974;47.538;18.972;2023-11-18T08:16:34;100666.41;;;5.45;70.31
75401;BME280;63974;47.538;18.972;2023-11-18T08:19:36;100663.44;;;5.49;69.27
75401;BME280;63974;47.538;18.972;2023-11-18T08:22:40;100675.84;;;5.55;67.44
75401;BME280;63974;47.538;18.972;2023-11-18T08:25:46;100692.41;;;5.62;68.20
75401;BME280;63974;47.538;18.972;2023-11-18T08:28:49;100721.72;;;5.71;66.82
75401;BME280;63974;47.538;18.972;2023-11-18T08:31:52;100700.31;;;5.70;66.91
75401;BME280;63974;47.538;18.972;2023-11-18T08:34:55;100689.38;;;5.78;67.56
75401;BME280;63974;47.538;18.972;2023-11-18T08:37:58;100683.38;;;5.77;66.63
75401;BME280;63974;47.538;18.972;2023-11-18T08:41:03;100690.53;;;5.85;66.03
75401;BME280;63974;47.538;18.972;2023-11-18T08:44:06;100717.66;;;5.89;66.62
75401;BME280;63974;47.538;18.972;2023-11-18T08:47:25;100704.66;;;5.90;65.63
75401;BME280;63974;47.538;18.972;2023-11-18T08:50:28;100715.38;;;5.95;64.93
75401;BME280;63974;47.538;18.972;2023-11-18T08:53:31;100734.13;;;6.07;64.63
75401;BME280;63974;47.538;18.972;2023-11-18T08:56:43;100686.00;;;6.07;64.92
75401;BME280;63974;47.538;18.972;2023-11-18T08:59:46;100710.19;;;6.25;64.09
75401;BME280;63974;47.538;18.972;2023-11-18T09:02:49;100712.66;;;6.27;63.54
75401;BME280;63974;47.538;18.972;2023-11-18T09:06:02;100710.91;;;6.37;63.58
75401;BME280;63974;47.538;18.972;2023-11-18T09:09:18;100704.41;;;6.42;64.10
75401;BME280;63974;47.538;18.972;2023-11-18T09:12:28;100715.28;;;6.46;63.62
75401;BME280;63974;47.538;18.972;2023-11-18T09:15:31;100706.22;;;6.60;64.58
75401;BME280;63974;47.538;18.972;2023-11-18T09:18:34;100693.72;;;6.47;63.19
75401;BME280;63974;47.538;18.972;2023-11-18T09:21:39;100707.69;;;6.53;63.68
75401;BME280;63974;47.538;18.972;2023-11-18T09:24:42;100741.50;;;6.60;63.19
75401;BME280;63974;47.538;18.972;2023-11-18T09:27:47;100714.91;;;6.69;61.87
75401;BME280;63974;47.538;18.972;2023-11-18T09:30:50;100723.22;;;6.63;62.06
75401;BME280;63974;47.538;18.972;2023-11-18T09:33:56;100691.28;;;6.73;61.93
75401;BME280;63974;47.538;18.972;2023-11-18T09:37:00;100713.72;;;6.82;62.39
75401;BME280;63974;47.538;18.972;2023-11-18T09:40:03;100691.28;;;6.83;63.28
75401;BME280;63974;47.538;18.972;2023-11-18T09:43:14;100701.50;;;6.94;64.72
75401;BME280;63974;47.538;18.972;2023-11-18T09:46:28;100696.47;;;7.02;63.18
75401;BME280;63974;47.538;18.972;2023-11-18T09:49:40;100694.56;;;6.94;61.67
75401;BME280;63974;47.538;18.972;2023-11-18T09:52:48;100688.03;;;7.09;62.33
75401;BME280;63974;47.538;18.972;2023-11-18T09:56:09;100689.25;;;7.05;61.35
75401;BME280;63974;47.538;18.972;2023-11-18T09:59:32;100686.53;;;7.07;60.15
75401;BME280;63974;47.538;18.972;2023-11-18T10:02:40;100675.00;;;7.20;60.65
75401;BME280;63974;47.538;18.972;2023-11-18T10:05:44;100670.06;;;7.17;60.62
75401;BME280;63974;47.538;18.972;2023-11-18T10:08:48;100690.31;;;7.22;58.86
75401;BME280;63974;47.538;18.972;2023-11-18T10:11:55;100666.81;;;7.34;59.05
75401;BME280;63974;47.538;18.972;2023-11-18T10:15:08;100663.25;;;7.45;60.09
75401;BME280;63974;47.538;18.972;2023-11-18T10:18:14;100690.19;;;7.23;59.32
75401;BME280;63974;47.538;18.972;2023-11-18T10:21:34;100674.56;;;7.15;57.52
75401;BME280;63974;47.538;18.972;2023-11-18T10:24:44;100666.13;;;7.23;58.22
75401;BME280;63974;47.538;18.972;2023-11-18T10:27:47;100651.72;;;7.30;59.05
75401;BME280;63974;47.538;18.972;2023-11-18T10:30:50;100635.41;;;7.39;60.26
75401;BME280;63974;47.538;18.972;2023-11-18T10:33:54;100645.81;;;7.56;61.20
75401;BME280;63974;47.538;18.972;2023-11-18T10:37:01;100693.03;;;7.39;59.38
75401;BME280;63974;47.538;18.972;2023-11-18T10:40:05;100693.88;;;7.30;59.20
75401;BME280;63974;47.538;18.972;2023-11-18T10:43:08;100668.47;;;7.26;58.05
75401;BME280;63974;47.538;18.972;2023-11-18T10:46:12;100648.72;;;7.34;58.39
75401;BME280;63974;47.538;18.972;2023-11-18T10:49:20;100662.28;;;7.46;57.93
75401;BME280;63974;47.538;18.972;2023-11-18T10:52:24;100671.28;;;7.42;58.18
75401;BME280;63974;47.538;18.972;2023-11-18T10:55:38;100662.03;;;7.49;59.56
75401;BME280;63974;47.538;18.972;2023-11-18T10:58:42;100656.59;;;7.42;58.12
75401;BME280;63974;47.538;18.972;2023-11-18T11:01:46;100665.28;;;7.51;58.96
75401;BME280;63974;47.538;18.972;2023-11-18T11:04:52;100642.28;;;7.57;59.16
75401;BME280;63974;47.538;18.972;2023-11-18T11:07:56;100653.31;;;7.50;57.90
75401;BME280;63974;47.538;18.972;2023-11-18T11:11:00;100676.25;;;7.62;60.25
75401;BME280;63974;47.538;18.972;2023-11-18T11:14:06;100642.34;;;7.75;58.99
75401;BME280;63974;47.538;18.972;2023-11-18T11:17:17;100645.06;;;7.73;59.01
75401;BME280;63974;47.538;18.972;2023-11-18T11:20:34;100649.94;;;7.86;58.67
75401;BME280;63974;47.538;18.972;2023-11-18T11:24:10;100667.84;;;7.87;59.32
75401;BME280;63974;47.538;18.972;2023-11-18T11:31:15;100665.97;;;7.34;58.88
75401;BME280;63974;47.538;18.972;2023-11-18T11:34:20;100693.16;;;7.47;58.05
75401;BME280;63974;47.538;18.972;2023-11-18T11:37:25;100689.50;;;7.86;57.53
75401;BME280;63974;47.538;18.972;2023-11-18T11:40:30;100686.38;;;7.83;57.05
75401;BME280;63974;47.538;18.972;2023-11-18T11:43:34;100723.13;;;7.77;57.05
75401;BME280;63974;47.538;18.972;2023-11-18T11:46:37;100706.25;;;7.82;55.95
75401;BME280;63974;47.538;18.972;2023-11-18T11:50:17;100681.63;;;7.78;56.45
75401;BME280;63974;47.538;18.972;2023-11-18T11:53:26;100697.13;;;7.78;56.75
75401;BME280;63974;47.538;18.972;2023-11-18T11:56:39;100698.41;;;7.65;56.45
75401;BME280;63974;47.538;18.972;2023-11-18T12:02:50;100687.50;;;7.25;58.04
75401;BME280;63974;47.538;18.972;2023-11-18T12:05:57;100714.38;;;7.32;58.03
75401;BME280;63974;47.538;18.972;2023-11-18T12:09:14;100708.13;;;7.44;57.98
75401;BME280;63974;47.538;18.972;2023-11-18T12:12:25;100706.34;;;7.35;56.76
75401;BME280;63974;47.538;18.972;2023-11-18T12:15:51;100710.81;;;7.52;57.92
75401;BME280;63974;47.538;18.972;2023-11-18T12:19:37;100710.00;;;7.51;58.06
75401;BME280;63974;47.538;18.972;2023-11-18T12:23:03;100718.25;;;7.64;57.16
75401;BME280;63974;47.538;18.972;2023-11-18T12:26:37;100772.09;;;7.78;55.20
75401;BME280;63974;47.538;18.972;2023-11-18T12:29:43;100719.50;;;8.06;56.40
75401;BME280;63974;47.538;18.972;2023-11-18T12:33:01;100714.56;;;7.86;57.58
75401;BME280;63974;47.538;18.972;2023-11-18T12:43:16;100735.28;;;7.57;57.50
75401;BME280;63974;47.538;18.972;2023-11-18T12:49:42;100730.75;;;7.78;58.26
75401;BME280;63974;47.538;18.972;2023-11-18T12:52:45;100730.22;;;7.65;60.14
75401;BME280;63974;47.538;18.972;2023-11-18T12:55:48;100723.31;;;7.47;59.02
75401;BME280;63974;47.538;18.972;2023-11-18T12:58:51;100703.78;;;7.44;59.49
75401;BME280;63974;47.538;18.972;2023-11-18T13:01:53;100736.94;;;7.49;60.27
75401;BME280;63974;47.538;18.972;2023-11-18T13:05:05;100731.50;;;7.52;58.40
75401;BME280;63974;47.538;18.972;2023-11-18T13:08:08;100740.31;;;7.59;56.64
75401;BME280;63974;47.538;18.972;2023-11-18T13:11:10;100749.69;;;7.69;56.88
75401;BME280;63974;47.538;18.972;2023-11-18T13:14:19;100758.75;;;7.83;56.76
75401;BME280;63974;47.538;18.972;2023-11-18T13:17:21;100757.25;;;7.90;57.83
75401;BME280;63974;47.538;18.972;2023-11-18T13:20:24;100759.16;;;7.88;58.21
75401;BME280;63974;47.538;18.972;2023-11-18T13:23:28;100773.72;;;7.89;57.73
75401;BME280;63974;47.538;18.972;2023-11-18T13:26:33;100777.69;;;7.64;55.71
75401;BME280;63974;47.538;18.972;2023-11-18T13:29:37;100774.59;;;7.61;56.41
75401;BME280;63974;47.538;18.972;2023-11-18T13:32:43;100790.22;;;7.59;55.51
75401;BME280;63974;47.538;18.972;2023-11-18T13:35:47;100797.84;;;7.61;55.70
75401;BME280;63974;47.538;18.972;2023-11-18T13:38:53;100791.03;;;7.69;56.79
75401;BME280;63974;47.538;18.972;2023-11-18T13:41:55;100794.44;;;7.70;56.93
75401;BME280;63974;47.538;18.972;2023-11-18T13:45:11;100796.75;;;7.54;56.88
75401;BME280;63974;47.538;18.972;2023-11-18T13:48:35;100807.94;;;7.54;57.05
75401;BME280;63974;47.538;18.972;2023-11-18T13:51:37;100791.72;;;7.43;55.43
75401;BME280;63974;47.538;18.972;2023-11-18T13:54:42;100823.69;;;7.51;56.48
75401;BME280;63974;47.538;18.972;2023-11-18T13:57:47;100828.28;;;7.48;57.40
75401;BME280;63974;47.538;18.972;2023-11-18T14:00:50;100836.72;;;7.40;58.29
75401;BME280;63974;47.538;18.972;2023-11-18T14:03:53;100837.81;;;7.19;57.20
75401;BME280;63974;47.538;18.972;2023-11-18T14:06:57;100835.06;;;7.11;57.21
75401;BME280;63974;47.538;18.972;2023-11-18T14:10:01;100853.13;;;7.01;58.29
75401;BME280;63974;47.538;18.972;2023-11-18T14:13:05;100834.22;;;6.91;58.89
75401;BME280;63974;47.538;18.972;2023-11-18T14:16:08;100845.78;;;6.97;58.75
75401;BME280;63974;47.538;18.972;2023-11-18T14:19:12;100850.41;;;6.93;60.60
75401;BME280;63974;47.538;18.972;2023-11-18T14:22:15;100851.88;;;6.86;60.35
75401;BME280;63974;47.538;18.972;2023-11-18T14:25:18;100873.88;;;6.90;59.35
75401;BME280;63974;47.538;18.972;2023-11-18T14:28:20;100861.25;;;6.97;58.90
75401;BME280;63974;47.538;18.972;2023-11-18T14:31:27;100849.56;;;6.93;59.38
75401;BME280;63974;47.538;18.972;2023-11-18T14:34:31;100846.88;;;6.94;59.15
75401;BME280;63974;47.538;18.972;2023-11-18T14:37:34;100862.31;;;6.85;61.13
75401;BME280;63974;47.538;18.972;2023-11-18T14:40:36;100844.34;;;6.74;61.39
75401;BME280;63974;47.538;18.972;2023-11-18T14:43:40;100854.91;;;6.61;61.93
75401;BME280;63974;47.538;18.972;2023-11-18T14:46:44;100851.09;;;6.56;61.40
75401;BME280;63974;47.538;18.972;2023-11-18T14:49:48;100844.94;;;6.48;61.34
75401;BME280;63974;47.538;18.972;2023-11-18T14:52:51;100849.53;;;6.44;61.17
75401;BME280;63974;47.538;18.972;2023-11-18T14:55:56;100851.06;;;6.26;63.62
75401;BME280;63974;47.538;18.972;2023-11-18T14:59:00;100850.53;;;6.23;63.28
75401;BME280;63974;47.538;18.972;2023-11-18T15:02:03;100853.31;;;6.20;62.85
75401;BME280;63974;47.538;18.972;2023-11-18T15:05:06;100854.34;;;6.08;64.23
75401;BME280;63974;47.538;18.972;2023-11-18T15:08:11;100872.06;;;6.01;64.37
75401;BME280;63974;47.538;18.972;2023-11-18T15:11:21;100865.13;;;5.92;64.41
75401;BME280;63974;47.538;18.972;2023-11-18T15:14:24;100869.94;;;5.86;65.21
75401;BME280;63974;47.538;18.972;2023-11-18T15:17:31;100865.16;;;5.81;64.61
75401;BME280;63974;47.538;18.972;2023-11-18T15:20:47;100862.72;;;5.80;64.75
75401;BME280;63974;47.538;18.972;2023-11-18T15:23:50;100865.44;;;5.67;65.79
75401;BME280;63974;47.538;18.972;2023-11-18T15:26:53;100866.84;;;5.60;66.47
75401;BME280;63974;47.538;18.972;2023-11-18T15:29:56;100865.81;;;5.63;65.74
75401;BME280;63974;47.538;18.972;2023-11-18T15:32:59;100872.09;;;5.70;65.11
75401;BME280;63974;47.538;18.972;2023-11-18T15:36:04;100879.69;;;5.82;63.65
75401;BME280;63974;47.538;18.972;2023-11-18T15:39:10;100877.69;;;5.75;65.17
75401;BME280;63974;47.538;18.972;2023-11-18T15:42:12;100884.25;;;5.79;63.93
75401;BME280;63974;47.538;18.972;2023-11-18T15:45:20;100887.31;;;5.73;64.72
75401;BME280;63974;47.538;18.972;2023-11-18T15:48:26;100886.41;;;5.63;65.14
75401;BME280;63974;47.538;18.972;2023-11-18T15:51:29;100890.38;;;5.67;64.95
75401;BME280;63974;47.538;18.972;2023-11-18T15:54:33;100895.59;;;5.76;63.73
75401;BME280;63974;47.538;18.972;2023-11-18T15:57:43;100894.19;;;5.83;63.92
75401;BME280;63974;47.538;18.972;2023-11-18T16:00:46;100888.81;;;5.75;64.70
75401;BME280;63974;47.538;18.972;2023-11-18T16:03:49;100891.75;;;5.71;65.17
75401;BME280;63974;47.538;18.972;2023-11-18T16:06:52;100901.13;;;5.72;64.33
75401;BME280;63974;47.538;18.972;2023-11-18T16:09:55;100909.56;;;5.74;64.25
75401;BME280;63974;47.538;18.972;2023-11-18T16:12:59;100900.16;;;5.84;63.17
75401;BME280;63974;47.538;18.972;2023-11-18T16:16:02;100903.00;;;5.81;63.61
75401;BME280;63974;47.538;18.972;2023-11-18T16:19:05;100914.25;;;5.69;64.10
75401;BME280;63974;47.538;18.972;2023-11-18T16:22:08;100908.41;;;5.67;63.38
75401;BME280;63974;47.538;18.972;2023-11-18T16:25:11;100906.06;;;5.64;63.77